Terminal Aerodrome Forecast
Issued by NWS

Home | Current Version | Previous Version | Text Only | Print | Product List | Glossary On
Versions: 1 2 3 4 5 6 7 8 9 10 11
006
FTUS44 KBMX 091720
TAFTCL
TAF
KTCL 091720Z 0918/1018 29012G22KT P6SM BKN050
     FM100000 30007KT P6SM SCT050
     FM101500 29010G18KT P6SM SKC=

USA.gov is the U.S. government's official web portal to all federal, state and local government web resources and services.